Disclaimer

Please do not use the information listed here in-flight or in-navigation, as they are not provided to us by the airports but are provided by volunteers, so they might be outdated.

Search


Regions


Airport information page

Radio informations:
Tower (TWR) - 122.1 MHz
Approach (APP) - 122.1 MHz
RDO - 5637 MHz

Airport informations:
Latitude: 39° 55' 01.46" N
Longitude: 025° 14' 10.71" E
Elevation: 14 feet - 4 meters
Operating hours: Remarks
Operating agency: Civil government, landing fees and diplomatic clearance may be required
Timezone: UTC+2(+3DT) - Last Sunday in March to last Sunday in October
Fuel: Jet A1, without icing nhibitor.

JP-8, SemiKeroscene MIL Spec T-83133, without icing inhibitor

Runway information:
04R/22L - 9895 x 148 feet< - >3016 x 45 meters

Recent METARs:
LGLM 151720Z 13012KT 9999 FEW015 15/13 Q1015
LGLM 151750Z 12013KT 9999 SCT015 15/13 Q1014
LGLM 151820Z 12014KT 9999 SCT015 FEW020TCU 15/13 Q1014

Airport on the map: